Flight Track Log - Related Links

Times and Time Zones

All times are in EST time to prevent confusion due to time zone crossing. See the TAM3959 flight status page for this flight to view local times or setup timezone preferences in your user account.


Time Position Orientation Groundspeed Altitude Reporting Facility
EST Latitude Longitude Course Direction KTS MPH feet Rate Location/Type
Thu 06:13:26 PM -22.9270 -43.1580 135° Southeast 154 177 1,000  Level FlightAware ADS-B
Thu 06:13:46 PM -22.9360 -43.1470 132° Southeast 141 162 2,200 3,000 Climbing FlightAware ADS-B
Thu 06:14:02 PM -22.9430 -43.1370 127° Southeast 161 185 2,800 2,087 Climbing FlightAware ADS-B
Thu 06:14:32 PM -22.9620 -43.1210 142° Southeast 207 238 3,800 2,903 Climbing FlightAware ADS-B
Thu 06:15:04 PM -22.9950 -43.1290 193° South 222 255 5,800 3,222 Climbing FlightAware ADS-B
Thu 06:15:26 PM -23.0100 -43.1480 229° Southwest 256 295 6,700 3,000 Climbing FlightAware ADS-B
Thu 06:15:50 PM -23.0230 -43.1780 245° Southwest 277 319 8,100 3,923 Climbing FlightAware ADS-B
Thu 06:16:18 PM -23.0380 -43.2140 246° West 282 325 10,100 2,747 Climbing FlightAware ADS-B
Thu 06:17:13 PM -23.0710 -43.2920 245° Southwest 353 406 11,900 2,491 Climbing FlightAware ADS-B
Thu 06:18:04 PM -23.1070 -43.3780 246° West 376 433 14,500 3,200 Climbing FlightAware ADS-B
Thu 06:18:58 PM -23.1470 -43.4710 245° Southwest 383 441 17,500 3,220 Climbing FlightAware ADS-B
Thu 06:19:26 PM -23.1680 -43.5210 245° Southwest 387 445 18,900 2,963 Climbing FlightAware ADS-B
Thu 06:20:19 PM -23.2080 -43.6140 245° Southwest 390 449 21,500 2,943 Climbing FlightAware ADS-B
Thu 06:21:12 PM -23.2470 -43.7060 245° Southwest 386 444 24,100 3,086 Climbing FlightAware ADS-B
Thu 06:22:04 PM -23.2870 -43.8000 245° Southwest 379 436 26,900 2,340 Climbing FlightAware ADS-B
Thu 06:22:52 PM -23.3210 -43.8800 245° Southwest 376 433 28,000 635 Climbing FlightAware ADS-B
Thu 06:23:48 PM -23.3620 -43.9790 246° West 379 436 28,000  Level FlightAware ADS-B
Thu 06:24:30 PM -23.3820 -44.0550 254° West 379 436 28,000  Level FlightAware ADS-B
Thu 06:25:02 PM -23.3950 -44.1150 257° West 379 436 28,000  Level FlightAware ADS-B
Thu 06:25:52 PM -23.4150 -44.2080 257° West 379 436 28,000  Level FlightAware ADS-B
Thu 06:26:46 PM -23.4360 -44.3100 257° West 379 436 28,000  Level FlightAware ADS-B
Thu 06:27:14 PM -23.4460 -44.3560 257° West 379 436 28,000  Level FlightAware ADS-B
Thu 06:28:15 PM -23.4710 -44.4740 257° West 429 494 28,000  Level FlightAware ADS-B
Thu 06:28:58 PM -23.4920 -44.5710 257° West 432 497 28,000  Level FlightAware ADS-B
Thu 06:29:47 PM -23.5140 -44.6760 257° West 432 497 28,000  Level FlightAware ADS-B
Thu 06:30:37 PM -23.5350 -44.7760 257° West 432 497 28,000  Level FlightAware ADS-B
Thu 06:31:23 PM -23.5560 -44.8750 257° West 431 496 28,000  Level FlightAware ADS-B
Thu 06:31:52 PM -23.5670 -44.9310 258° West 431 496 28,000  Level FlightAware ADS-B
Thu 06:32:47 PM -23.5920 -45.0510 257° West 430 495 28,000  Level FlightAware ADS-B
Thu 06:33:53 PM -23.6220 -45.1960 257° West 431 496 28,000  Level FlightAware ADS-B
Thu 06:34:23 PM -23.6360 -45.2610 257° West 429 494 28,000  Level FlightAware ADS-B
Thu 06:34:53 PM -23.6490 -45.3220 257° West 431 496 28,000  Level FlightAware ADS-B
Thu 06:35:23 PM -23.6620 -45.3860 257° West 429 494 28,000 -67 Level FlightAware ADS-B
Thu 06:36:23 PM -23.6880 -45.5150 258° West 429 494 27,900 -1,086 Descending FlightAware ADS-B
Thu 06:37:19 PM -23.7110 -45.6280 257° West 411 473 25,900 -2,333 Descending FlightAware ADS-B
Thu 06:37:53 PM -23.7250 -45.6980 258° West 411 473 24,400 -1,685 Descending FlightAware ADS-B
Thu 06:38:48 PM -23.7490 -45.8120 257° West 418 481 23,400 -1,132 Descending FlightAware ADS-B
Thu 06:39:39 PM -23.7700 -45.9170 258° West 418 481 22,400 -1,856 Descending FlightAware ADS-B
Thu 06:40:25 PM -23.7890 -46.0140 258° West 414 476 20,400 -2,948 Descending FlightAware ADS-B
Thu 06:41:35 PM -23.8180 -46.1560 257° West 407 468 16,700 -3,000 Descending FlightAware ADS-B
Thu 06:42:27 PM -23.8380 -46.2580 258° West 397 457 14,300 -2,721 Descending FlightAware ADS-B
Thu 06:43:01 PM -23.8510 -46.3230 258° West 391 450 12,800 -2,488 Descending FlightAware ADS-B
Thu 06:43:49 PM -23.8690 -46.4160 258° West 372 428 10,900 -1,647 Descending FlightAware ADS-B
Thu 06:44:43 PM -23.8860 -46.5090 259° West 327 376 10,000 -929 Descending FlightAware ADS-B
Thu 06:45:13 PM -23.8700 -46.5490 294° West 294 338 9,600 -750 Descending FlightAware ADS-B
Thu 06:45:39 PM -23.8440 -46.5740 319° Northwest 288 331 9,300 -600 Descending FlightAware ADS-B
Thu 06:46:13 PM -23.8100 -46.6080 318° Northwest 270 311 9,000 -469 Descending FlightAware ADS-B
Thu 06:46:43 PM -23.7810 -46.6360 319° Northwest 251 289 8,800 -327 Descending FlightAware ADS-B
Thu 06:47:08 PM -23.7640 -46.6530 318° Northwest 243 280 8,700 -526 Descending FlightAware ADS-B
Thu 06:47:40 PM -23.7330 -46.6830 318° Northwest 244 281 8,300 -656 Descending FlightAware ADS-B
Thu 06:48:12 PM -23.7050 -46.7110 318° Northwest 245 282 8,000 -277 Descending FlightAware ADS-B
Thu 06:48:45 PM -23.6780 -46.7370 319° Northwest 247 284 8,000  Level FlightAware ADS-B
Thu 06:49:08 PM -23.6580 -46.7570 318° Northwest 247 284 8,000  Level FlightAware ADS-B
Thu 06:49:28 PM -23.6420 -46.7740 316° Northwest 246 283 8,000  Level FlightAware ADS-B
Thu 06:49:56 PM -23.6190 -46.7960 319° Northwest 222 255 8,000 -100 Level FlightAware ADS-B
Thu 06:50:28 PM -23.5950 -46.8200 317° Northwest 208 239 7,900 -281 Descending FlightAware ADS-B
Thu 06:51:00 PM -23.5730 -46.8420 317° Northwest 208 239 7,700 -484 Descending FlightAware ADS-B
Thu 06:51:30 PM -23.5510 -46.8630 319° Northwest 213 245 7,400 -720 Descending FlightAware ADS-B
Thu 06:51:50 PM -23.5360 -46.8770 319° Northwest 212 244 7,100 -833 Descending FlightAware ADS-B
Thu 06:52:06 PM -23.5220 -46.8820 342° North 207 238 6,900 -875 Descending FlightAware ADS-B
Thu 06:52:38 PM -23.5000 -46.8680 30° Northeast 205 236 6,400 -894 Descending FlightAware ADS-B
Thu 06:52:53 PM -23.4960 -46.8530 74° East 203 234 6,200 -875 Descending FlightAware ADS-B
Thu 06:53:26 PM -23.4880 -46.8170 76° East 196 226 5,700 -774 Descending FlightAware ADS-B
Thu 06:53:55 PM -23.4830 -46.7900 79° East 189 217 5,400 -480 Descending FlightAware ADS-B
Thu 06:54:16 PM -23.4790 -46.7700 78° East 179 206 5,300 -393 Descending FlightAware ADS-B
Thu 06:54:56 PM -23.5000 -46.7440 131° Southeast 175 201 5,000 -536 Descending FlightAware ADS-B
Thu 06:55:12 PM -23.5110 -46.7360 146° Southeast 174 200 4,800 -857 Descending FlightAware ADS-B
Thu 06:55:52 PM -23.5360 -46.7190 148° Southeast 153 176 4,200 -828 Descending FlightAware ADS-B
Thu 06:56:10 PM -23.5460 -46.7120 147° Southeast 129 148 4,000 -600 Descending FlightAware ADS-B
Thu 06:56:42 PM -23.5610 -46.7020 149° Southeast 116 133 3,700 -563 Descending FlightAware ADS-B
Thu 06:57:14 PM -23.5760 -46.6920 149° Southeast 121 139 3,400 -643 Descending FlightAware ADS-B
Thu 06:57:38 PM -23.5880 -46.6840 149° Southeast 118 136 3,100 -667 Descending FlightAware ADS-B
Thu 06:58:08 PM -23.6010 -46.6740 145° Southeast 117 135 2,800 -500 Descending FlightAware ADS-B
Thu 06:58:26 PM -23.6090 -46.6690 150° Southeast 116 133 2,700 -429 Descending FlightAware ADS-B
Thu 06:58:50 PM -23.6180 -46.6620 145° Southeast 117 135 2,500 -439 Descending FlightAware ADS-B
Thu 06:59:07 PM -23.6240 -46.6580 149° Southeast 118 136 2,400 -353 Descending FlightAware ADS-B
Thu 06:59:39 PM -23.6200 -46.6470 68° East 108 124 -4,500 Descending FlightAware ADS-B
Thu 07:01:46 PM -23.6300 -46.6580 270° West 108 124  Level FlightAware ADS-B
Thu 07:02:12 PM -23.6300 -46.6590 270° West 108 124  Level FlightAware ADS-B
Thu 07:03:27 PM -23.6350 -46.6470 114° Southeast 108 124  Level FlightAware ADS-B
Thu 07:03:49 PM -23.6300 -46.6590 294° West 108 124  Level FlightAware ADS-B
Thu 07:04:16 PM -23.6350 -46.6480 116° Southeast 108 124  Level FlightAware ADS-B
Thu 07:04:51 PM -23.6300 -46.6590 296° West 108 124  Level FlightAware ADS-B
Thu 07:05:19 PM -23.6350 -46.6470 114° Southeast 108 124  Level FlightAware ADS-B

Login

Don't have an account? Register now (free) for customized features, flight alerts, and more!